createdAt,value
2023-04-30T00:00:38.930Z,1.58
2023-04-30T00:03:05.583Z,1.27
2023-04-30T00:05:32.239Z,1.25
2023-04-30T00:07:58.786Z,1.35
2023-04-30T00:10:25.566Z,1.40
2023-04-30T00:12:52.060Z,1.42
2023-04-30T00:15:18.650Z,1.48
2023-04-30T00:17:45.882Z,1.00
2023-04-30T00:20:12.900Z,1.17
2023-04-30T00:22:39.448Z,1.42
2023-04-30T00:25:06.702Z,1.35
2023-04-30T00:27:33.299Z,1.10
2023-04-30T00:29:59.816Z,1.25
2023-04-30T00:32:26.524Z,1.30
2023-04-30T00:34:53.085Z,1.10
2023-04-30T00:37:19.617Z,1.35
2023-04-30T00:39:46.107Z,1.27
2023-04-30T00:42:12.625Z,1.02
2023-04-30T00:44:39.109Z,1.48
2023-04-30T00:47:05.699Z,1.25
2023-04-30T00:49:32.178Z,1.25
2023-04-30T00:51:58.669Z,1.20
2023-04-30T00:54:25.500Z,1.27
2023-04-30T00:56:52.261Z,1.10
2023-04-30T00:59:18.962Z,1.15
2023-04-30T01:01:45.867Z,1.13
2023-04-30T01:04:12.598Z,1.33
2023-04-30T01:06:39.440Z,1.15
2023-04-30T01:09:06.351Z,1.30
2023-04-30T01:11:32.873Z,1.30
2023-04-30T01:14:04.517Z,1.38
2023-04-30T01:16:33.878Z,1.10
2023-04-30T01:19:05.333Z,1.25
2023-04-30T01:21:33.601Z,1.25
2023-04-30T01:24:09.094Z,1.40
2023-04-30T01:26:54.525Z,1.48
2023-04-30T01:29:22.247Z,1.30
2023-04-30T01:31:49.040Z,1.48
2023-04-30T01:34:15.617Z,1.17
2023-04-30T01:36:42.445Z,1.60
2023-04-30T01:39:14.952Z,1.40
2023-04-30T01:41:53.401Z,1.40
2023-04-30T01:44:35.246Z,1.17
2023-04-30T01:47:02.172Z,1.40
2023-04-30T01:49:43.949Z,1.35
2023-04-30T01:52:17.239Z,1.60
2023-04-30T01:54:52.827Z,1.42
2023-04-30T01:57:29.766Z,1.65
2023-04-30T01:59:56.757Z,1.35
2023-04-30T02:02:23.500Z,1.50
2023-04-30T02:04:50.660Z,1.33
2023-04-30T02:07:21.305Z,1.52
2023-04-30T02:09:48.129Z,1.50
2023-04-30T02:12:15.130Z,1.70
2023-04-30T02:14:41.849Z,1.20
2023-04-30T02:17:08.563Z,1.27
2023-04-30T02:19:35.387Z,1.60
2023-04-30T02:22:02.035Z,1.73
2023-04-30T02:24:28.599Z,1.60
2023-04-30T02:26:55.272Z,1.80
2023-04-30T02:29:22.032Z,1.80
2023-04-30T02:31:48.730Z,1.55
2023-04-30T02:34:15.335Z,1.55
2023-04-30T02:36:41.874Z,1.50
2023-04-30T02:39:09.196Z,1.70
2023-04-30T02:41:36.473Z,1.42
2023-04-30T02:44:03.274Z,1.80
2023-04-30T02:46:29.844Z,1.70
2023-04-30T02:48:56.302Z,1.67
2023-04-30T02:51:22.895Z,1.50
2023-04-30T02:53:49.822Z,1.70
2023-04-30T02:56:16.355Z,1.40
2023-04-30T02:58:42.966Z,1.90
2023-04-30T03:01:09.504Z,1.55
2023-04-30T03:03:36.257Z,1.80
2023-04-30T03:06:03.084Z,1.80
2023-04-30T03:08:29.691Z,1.63
2023-04-30T03:10:56.424Z,1.88
2023-04-30T03:13:25.929Z,2.20
2023-04-30T03:16:04.757Z,2.10
2023-04-30T03:18:31.554Z,1.85
2023-04-30T03:20:58.488Z,2.10
2023-04-30T03:23:27.988Z,1.50
2023-04-30T03:25:54.683Z,1.80
2023-04-30T03:28:21.622Z,1.73
2023-04-30T03:30:48.290Z,2.00
2023-04-30T03:33:15.001Z,1.77
2023-04-30T03:35:41.715Z,2.05
2023-04-30T03:38:08.335Z,2.25
2023-04-30T03:40:34.897Z,2.25
2023-04-30T03:43:01.597Z,1.88
2023-04-30T03:45:28.250Z,1.95
2023-04-30T03:47:54.988Z,1.80
2023-04-30T03:50:21.579Z,1.77
2023-04-30T03:52:48.216Z,1.70
2023-04-30T03:55:14.754Z,1.63
2023-04-30T03:57:41.598Z,1.90
2023-04-30T04:00:10.271Z,2.00
2023-04-30T04:02:37.471Z,2.15
2023-04-30T04:05:04.497Z,2.60
2023-04-30T04:07:31.137Z,2.03
2023-04-30T04:09:57.780Z,2.17
2023-04-30T04:12:24.521Z,2.10
2023-04-30T04:14:51.096Z,2.10
2023-04-30T04:17:17.778Z,2.22
2023-04-30T04:19:44.317Z,2.10
2023-04-30T04:22:11.176Z,2.38
2023-04-30T04:24:38.415Z,2.80
2023-04-30T04:27:05.764Z,2.17
2023-04-30T04:29:32.851Z,2.00
2023-04-30T04:32:02.809Z,2.28
2023-04-30T04:34:29.436Z,2.30
2023-04-30T04:36:55.975Z,2.38
2023-04-30T04:39:22.466Z,2.28
2023-04-30T04:41:48.921Z,2.35
2023-04-30T04:44:15.391Z,2.00
2023-04-30T04:46:45.831Z,2.13
2023-04-30T04:49:12.737Z,2.67
2023-04-30T04:51:39.802Z,2.20
2023-04-30T04:54:06.400Z,2.55
2023-04-30T04:56:32.873Z,2.42
2023-04-30T04:58:59.662Z,2.03
2023-04-30T05:01:26.304Z,2.42
2023-04-30T05:03:54.378Z,2.20
2023-04-30T05:06:21.287Z,2.10
2023-04-30T05:08:47.778Z,1.58
2023-04-30T05:11:15.704Z,2.35
2023-04-30T05:13:42.463Z,2.30
2023-04-30T05:16:08.998Z,2.38
2023-04-30T05:18:35.602Z,2.83
2023-04-30T05:21:02.080Z,2.40
2023-04-30T05:23:28.642Z,2.38
2023-04-30T05:25:55.509Z,2.28
2023-04-30T05:28:22.160Z,2.08
2023-04-30T05:30:48.608Z,2.30
2023-04-30T05:33:15.203Z,2.28
2023-04-30T05:35:42.089Z,2.45
2023-04-30T05:38:08.643Z,2.28
2023-04-30T05:40:35.356Z,2.20
2023-04-30T05:43:01.884Z,2.60
2023-04-30T05:45:28.365Z,2.50
2023-04-30T05:47:54.926Z,1.90
2023-04-30T05:50:21.408Z,2.33
2023-04-30T05:52:47.880Z,2.40
2023-04-30T05:55:14.401Z,2.03
2023-04-30T05:57:40.899Z,2.40
2023-04-30T06:00:07.736Z,2.50
2023-04-30T06:02:37.320Z,2.75
2023-04-30T06:05:04.118Z,1.92
2023-04-30T06:07:30.843Z,2.67
2023-04-30T06:09:57.471Z,2.30
2023-04-30T06:12:24.033Z,2.45
2023-04-30T06:14:50.774Z,2.70
2023-04-30T06:17:17.421Z,2.38
2023-04-30T06:19:43.884Z,2.22
2023-04-30T06:22:10.470Z,2.35
2023-04-30T06:24:36.959Z,2.28
2023-04-30T06:27:03.502Z,1.80
2023-04-30T06:29:30.040Z,2.35
2023-04-30T06:31:56.709Z,1.90
2023-04-30T06:34:23.336Z,1.73
2023-04-30T06:36:50.088Z,2.40
2023-04-30T06:39:16.748Z,2.25
2023-04-30T06:41:43.276Z,2.25
2023-04-30T06:44:09.995Z,2.33
2023-04-30T06:46:36.625Z,2.13
2023-04-30T06:49:03.914Z,2.15
2023-04-30T06:51:31.131Z,2.05
2023-04-30T06:53:57.691Z,2.60
2023-04-30T06:56:25.158Z,2.20
2023-04-30T06:58:51.705Z,2.60
2023-04-30T07:01:18.764Z,2.22
2023-04-30T07:03:45.534Z,2.70
2023-04-30T07:06:12.110Z,2.40
2023-04-30T07:08:41.153Z,2.20
2023-04-30T07:11:08.052Z,2.28
2023-04-30T07:13:34.739Z,2.10
2023-04-30T07:16:01.696Z,2.47
2023-04-30T07:18:28.363Z,2.28
2023-04-30T07:20:55.057Z,2.15
2023-04-30T07:23:21.844Z,2.28
2023-04-30T07:25:48.495Z,2.15
2023-04-30T07:28:15.082Z,2.40
2023-04-30T07:30:41.722Z,2.33
2023-04-30T07:33:09.044Z,2.40
2023-04-30T07:35:36.550Z,2.22
2023-04-30T07:38:03.509Z,2.47
2023-04-30T07:43:01.280Z,2.30
2023-04-30T07:45:27.796Z,2.03
2023-04-30T07:47:54.384Z,2.03
2023-04-30T07:50:21.018Z,2.08
2023-04-30T07:52:48.944Z,2.17
2023-04-30T07:55:15.553Z,1.98
2023-04-30T07:57:42.097Z,2.03
2023-04-30T08:00:08.863Z,2.10
2023-04-30T08:02:35.719Z,2.00
2023-04-30T08:05:02.442Z,2.00
2023-04-30T08:07:29.028Z,1.98
2023-04-30T08:09:55.949Z,2.20
2023-04-30T08:12:22.712Z,2.00
2023-04-30T08:14:49.309Z,2.33
2023-04-30T08:17:15.731Z,2.30
2023-04-30T08:19:42.218Z,2.03
2023-04-30T08:22:08.870Z,2.30
2023-04-30T08:24:35.406Z,2.33
2023-04-30T08:27:04.081Z,2.30
2023-04-30T08:29:30.575Z,2.25
2023-04-30T08:32:02.689Z,2.60
2023-04-30T08:34:29.364Z,2.00
2023-04-30T08:36:56.035Z,2.03
2023-04-30T08:39:22.536Z,1.88
2023-04-30T08:41:53.638Z,2.00
2023-04-30T08:44:21.180Z,2.00
2023-04-30T08:46:48.204Z,2.10
2023-04-30T08:49:14.768Z,1.88
2023-04-30T08:51:41.343Z,2.28
2023-04-30T08:54:11.178Z,2.03
2023-04-30T08:56:37.824Z,2.67
2023-04-30T08:59:04.356Z,2.10
2023-04-30T09:01:31.108Z,2.20
2023-04-30T09:03:57.910Z,2.10
2023-04-30T09:06:24.865Z,1.80
2023-04-30T09:08:52.697Z,2.00
2023-04-30T09:11:23.419Z,2.40
2023-04-30T09:13:51.038Z,2.00
2023-04-30T09:16:17.708Z,2.05
2023-04-30T09:18:44.415Z,2.08
2023-04-30T09:21:11.185Z,2.10
2023-04-30T09:23:37.847Z,2.00
2023-04-30T09:26:04.455Z,1.75
2023-04-30T09:28:31.919Z,1.70
2023-04-30T09:30:58.679Z,1.90
2023-04-30T09:33:25.383Z,2.08
2023-04-30T09:35:51.964Z,2.08
2023-04-30T09:38:31.761Z,2.13
2023-04-30T09:41:00.200Z,2.00
2023-04-30T09:43:27.508Z,2.22
2023-04-30T09:45:54.055Z,2.08
2023-04-30T09:48:24.050Z,2.03
2023-04-30T09:50:51.243Z,2.25
2023-04-30T09:53:18.174Z,2.40
2023-04-30T09:55:45.921Z,2.30
2023-04-30T09:58:12.931Z,1.90
2023-04-30T10:00:40.003Z,1.80
2023-04-30T10:03:08.363Z,1.83
2023-04-30T10:05:41.394Z,2.05
2023-04-30T10:08:13.712Z,1.98
2023-04-30T10:10:41.552Z,2.47
2023-04-30T10:13:10.824Z,1.83
2023-04-30T10:15:43.338Z,1.80
2023-04-30T10:20:41.224Z,2.33
2023-04-30T10:23:08.571Z,1.98
2023-04-30T10:25:35.734Z,2.00
2023-04-30T10:28:04.632Z,2.03
2023-04-30T10:30:32.031Z,2.17
2023-04-30T10:33:07.820Z,2.05
2023-04-30T10:35:40.332Z,2.08
2023-04-30T10:38:06.804Z,2.15
2023-04-30T10:40:37.334Z,2.03
2023-04-30T10:43:03.824Z,2.10
2023-04-30T10:45:40.396Z,2.45
2023-04-30T10:48:07.422Z,2.20
2023-04-30T10:50:39.737Z,1.80
2023-04-30T10:53:07.318Z,2.20
2023-04-30T10:55:33.851Z,1.75
2023-04-30T10:58:00.769Z,1.65
2023-04-30T11:00:28.027Z,1.73
2023-04-30T11:03:04.253Z,2.17
2023-04-30T11:05:38.210Z,2.15
2023-04-30T11:08:04.900Z,1.80
2023-04-30T11:10:35.386Z,1.83
2023-04-30T11:13:06.089Z,2.00
2023-04-30T11:15:41.778Z,1.90
2023-04-30T11:18:09.159Z,2.13
2023-04-30T11:20:40.052Z,2.20
2023-04-30T11:23:10.249Z,1.85
2023-04-30T11:25:40.168Z,1.95
2023-04-30T11:28:07.152Z,2.00
2023-04-30T11:30:34.989Z,2.33
2023-04-30T11:33:01.658Z,1.80
2023-04-30T11:35:29.322Z,1.80
2023-04-30T11:37:57.074Z,1.95
2023-04-30T11:40:24.014Z,2.08
2023-04-30T11:42:50.773Z,2.17
2023-04-30T11:45:20.905Z,1.95
2023-04-30T11:47:48.857Z,1.90
2023-04-30T11:50:16.551Z,2.08
2023-04-30T11:52:48.930Z,1.80
2023-04-30T11:55:16.681Z,1.98
2023-04-30T11:57:47.116Z,2.13
2023-04-30T12:00:14.667Z,1.90
2023-04-30T12:02:48.703Z,2.22
2023-04-30T12:05:18.539Z,1.95
2023-04-30T12:07:46.456Z,1.95
2023-04-30T12:10:13.258Z,1.83
2023-04-30T12:12:39.881Z,2.10
2023-04-30T12:15:33.352Z,1.92
2023-04-30T12:18:00.363Z,2.00
2023-04-30T12:20:28.322Z,1.60
2023-04-30T12:22:55.072Z,2.28
2023-04-30T12:25:22.473Z,1.83
2023-04-30T12:27:49.928Z,1.90
2023-04-30T12:30:19.639Z,2.17
2023-04-30T12:32:48.854Z,2.08
2023-04-30T12:35:16.646Z,1.77
2023-04-30T12:37:44.567Z,2.20
2023-04-30T12:40:11.746Z,2.10
2023-04-30T12:42:38.550Z,2.00
2023-04-30T12:45:05.487Z,1.88
2023-04-30T12:47:32.000Z,1.38
2023-04-30T12:49:59.116Z,1.73
2023-04-30T12:52:26.479Z,1.83
2023-04-30T12:54:54.935Z,1.98
2023-04-30T12:57:21.579Z,1.73
2023-04-30T12:59:54.252Z,2.08
2023-04-30T13:02:23.973Z,1.58
2023-04-30T13:04:51.364Z,2.15
2023-04-30T13:07:17.914Z,1.90
2023-04-30T13:09:44.497Z,1.95
2023-04-30T13:12:10.990Z,2.00
2023-04-30T13:14:37.635Z,1.90
2023-04-30T13:17:06.165Z,2.28
2023-04-30T13:19:32.996Z,2.00
2023-04-30T13:22:01.760Z,2.25
2023-04-30T13:24:28.252Z,1.98
2023-04-30T13:26:54.967Z,2.20
2023-04-30T13:29:21.418Z,2.35
2023-04-30T13:31:49.211Z,2.40
2023-04-30T13:34:15.775Z,1.90
2023-04-30T13:36:42.586Z,1.75
2023-04-30T13:39:10.582Z,1.98
2023-04-30T13:41:37.136Z,2.10
2023-04-30T13:44:04.017Z,2.20
2023-04-30T13:46:30.682Z,3.65
2023-04-30T13:48:57.321Z,2.83
2023-04-30T13:51:23.880Z,2.60
2023-04-30T13:53:50.524Z,2.88
2023-04-30T13:56:17.069Z,2.90
2023-04-30T13:58:44.258Z,2.50
2023-04-30T14:01:10.797Z,2.70
2023-04-30T14:03:37.523Z,2.40
2023-04-30T14:06:04.626Z,2.58
2023-04-30T14:08:31.935Z,2.50
2023-04-30T14:10:58.687Z,2.40
2023-04-30T14:13:25.815Z,2.70
2023-04-30T14:15:52.289Z,2.70
2023-04-30T14:18:22.831Z,2.55
2023-04-30T14:20:49.560Z,2.22
2023-04-30T14:23:16.323Z,2.47
2023-04-30T14:25:42.890Z,2.30
2023-04-30T14:28:09.560Z,2.10
2023-04-30T14:30:36.085Z,2.25
2023-04-30T14:33:02.627Z,2.40
2023-04-30T14:35:29.161Z,2.40
2023-04-30T14:37:55.613Z,2.10
2023-04-30T14:40:22.140Z,2.40
2023-04-30T14:42:50.640Z,2.20
2023-04-30T14:45:17.250Z,2.70
2023-04-30T14:47:43.980Z,2.20
2023-04-30T14:50:10.929Z,2.30
2023-04-30T14:52:37.497Z,2.08
2023-04-30T14:55:04.897Z,2.03
2023-04-30T14:57:32.098Z,2.13
2023-04-30T15:00:00.493Z,1.88
2023-04-30T15:02:27.159Z,1.98
2023-04-30T15:04:53.741Z,1.92
2023-04-30T15:07:20.928Z,2.20
2023-04-30T15:09:47.963Z,2.28
2023-04-30T15:12:14.566Z,2.30
2023-04-30T15:14:41.621Z,2.15
2023-04-30T15:17:08.388Z,2.50
2023-04-30T15:19:35.270Z,2.53
2023-04-30T15:22:01.779Z,2.25
2023-04-30T15:24:28.270Z,2.30
2023-04-30T15:26:55.395Z,2.40
2023-04-30T15:29:21.951Z,2.15
2023-04-30T15:31:52.048Z,2.33
2023-04-30T15:34:18.631Z,2.25
2023-04-30T15:36:45.492Z,2.20
2023-04-30T15:39:12.143Z,2.20
2023-04-30T15:41:38.638Z,1.70
2023-04-30T15:44:05.183Z,2.42
2023-04-30T15:46:32.659Z,2.35
2023-04-30T15:48:59.357Z,2.08
2023-04-30T15:51:25.967Z,2.00
2023-04-30T15:53:52.585Z,2.10
2023-04-30T15:56:19.702Z,2.08
2023-04-30T15:58:46.224Z,2.45
2023-04-30T16:01:12.791Z,1.73
2023-04-30T16:03:39.436Z,2.05
2023-04-30T16:06:06.196Z,1.92
2023-04-30T16:08:33.170Z,1.98
2023-04-30T16:10:59.915Z,2.10
2023-04-30T16:13:26.413Z,2.13
2023-04-30T16:15:53.144Z,2.30
2023-04-30T16:18:19.763Z,2.13
2023-04-30T16:20:47.339Z,2.10
2023-04-30T16:23:14.002Z,1.90
2023-04-30T16:25:40.863Z,1.80
2023-04-30T16:28:07.452Z,2.00
2023-04-30T16:30:34.700Z,2.10
2023-04-30T16:33:01.235Z,2.10
2023-04-30T16:35:27.812Z,2.10
2023-04-30T16:37:54.912Z,2.20
2023-04-30T16:40:21.746Z,2.10
2023-04-30T16:42:48.371Z,2.28
2023-04-30T16:45:14.978Z,2.30
2023-04-30T16:47:41.552Z,2.17
2023-04-30T16:50:08.621Z,2.20
2023-04-30T16:52:35.088Z,2.30
2023-04-30T16:55:02.445Z,2.00
2023-04-30T16:57:28.981Z,2.20
2023-04-30T16:59:55.603Z,2.10
2023-04-30T17:02:22.522Z,2.35
2023-04-30T17:04:49.158Z,2.47
2023-04-30T17:07:17.533Z,2.20
2023-04-30T17:09:44.156Z,1.92
2023-04-30T17:12:11.244Z,1.88
2023-04-30T17:14:37.737Z,2.10
2023-04-30T17:17:04.278Z,2.00
2023-04-30T17:19:30.895Z,2.40
2023-04-30T17:21:57.396Z,1.85
2023-04-30T17:24:24.359Z,2.22
2023-04-30T17:26:51.278Z,1.70
2023-04-30T17:29:19.773Z,1.90
2023-04-30T17:31:47.003Z,2.05
2023-04-30T17:34:13.693Z,2.08
2023-04-30T17:36:40.198Z,2.40
2023-04-30T17:39:06.844Z,2.15
2023-04-30T17:41:33.490Z,2.40
2023-04-30T17:44:00.012Z,2.03
2023-04-30T17:46:26.580Z,1.98
2023-04-30T17:48:53.131Z,2.10
2023-04-30T17:51:19.658Z,2.00
2023-04-30T17:53:46.311Z,1.95
2023-04-30T17:56:12.882Z,2.15
2023-04-30T17:58:40.097Z,2.08
2023-04-30T18:01:07.662Z,2.33
2023-04-30T18:03:36.468Z,1.73
2023-04-30T18:06:04.316Z,1.88
2023-04-30T18:08:30.989Z,2.00
2023-04-30T18:10:57.838Z,1.98
2023-04-30T18:13:24.516Z,2.13
2023-04-30T18:15:51.497Z,2.20
2023-04-30T18:18:18.638Z,1.95
2023-04-30T18:20:45.227Z,2.17
2023-04-30T18:23:13.433Z,2.15
2023-04-30T18:25:40.345Z,2.38
2023-04-30T18:28:08.018Z,2.08
2023-04-30T18:30:37.592Z,2.30
2023-04-30T18:33:04.988Z,2.00
2023-04-30T18:35:31.853Z,2.72
2023-04-30T18:37:58.469Z,2.10
2023-04-30T18:40:25.131Z,2.42
2023-04-30T18:42:51.865Z,2.25
2023-04-30T18:45:18.650Z,2.15
2023-04-30T18:47:45.371Z,1.92
2023-04-30T18:50:15.438Z,1.90
2023-04-30T18:52:41.975Z,2.03
2023-04-30T18:55:08.897Z,2.30
2023-04-30T18:57:35.507Z,2.35
2023-04-30T19:00:02.131Z,2.42
2023-04-30T19:02:28.769Z,2.47
2023-04-30T19:04:55.425Z,2.33
2023-04-30T19:07:21.920Z,2.20
2023-04-30T19:09:50.427Z,2.47
2023-04-30T19:12:16.932Z,2.38
2023-04-30T19:14:44.090Z,2.50
2023-04-30T19:17:12.202Z,2.45
2023-04-30T19:19:38.980Z,1.95
2023-04-30T19:22:05.645Z,2.33
2023-04-30T19:24:32.173Z,2.42
2023-04-30T19:26:58.630Z,2.47
2023-04-30T19:29:25.587Z,2.50
2023-04-30T19:31:53.037Z,1.98
2023-04-30T19:34:19.710Z,2.47
2023-04-30T19:36:46.213Z,2.03
2023-04-30T19:39:12.740Z,2.20
2023-04-30T19:41:39.340Z,2.13
2023-04-30T19:44:06.482Z,2.00
2023-04-30T19:46:33.009Z,2.30
2023-04-30T19:48:59.516Z,2.15
2023-04-30T19:51:26.170Z,2.10
2023-04-30T19:53:53.188Z,2.20
2023-04-30T19:56:19.746Z,2.47
2023-04-30T19:58:47.549Z,2.75
2023-04-30T20:01:14.281Z,2.38
2023-04-30T20:03:41.844Z,2.50
2023-04-30T20:06:09.777Z,2.15
2023-04-30T20:08:36.573Z,2.22
2023-04-30T20:11:03.823Z,2.15
2023-04-30T20:13:30.513Z,2.25
2023-04-30T20:15:57.185Z,1.98
2023-04-30T20:18:23.791Z,2.20
2023-04-30T20:20:50.342Z,2.63
2023-04-30T20:23:17.811Z,2.20
2023-04-30T20:25:45.511Z,2.80
2023-04-30T20:28:13.086Z,2.67
2023-04-30T20:30:43.114Z,2.42
2023-04-30T20:33:13.347Z,2.53
2023-04-30T20:35:41.005Z,2.45
2023-04-30T20:38:08.142Z,2.60
2023-04-30T20:40:34.789Z,2.55
2023-04-30T20:43:01.314Z,2.50
2023-04-30T20:45:28.315Z,1.95
2023-04-30T20:47:54.956Z,2.17
2023-04-30T20:50:21.554Z,2.55
2023-04-30T20:52:48.072Z,2.20
2023-04-30T20:55:14.667Z,2.40
2023-04-30T20:57:41.204Z,2.67
2023-04-30T21:00:07.967Z,2.70
2023-04-30T21:02:34.516Z,2.90
2023-04-30T21:05:04.551Z,2.63
2023-04-30T21:07:32.845Z,2.55
2023-04-30T21:09:59.354Z,2.60
2023-04-30T21:12:25.915Z,2.55
2023-04-30T21:14:52.525Z,2.55
2023-04-30T21:17:19.429Z,2.55
2023-04-30T21:19:46.671Z,3.08
2023-04-30T21:22:13.448Z,2.55
2023-04-30T21:24:40.021Z,2.60
2023-04-30T21:27:06.805Z,2.70
2023-04-30T21:29:34.664Z,2.55
2023-04-30T21:32:01.491Z,2.60
2023-04-30T21:34:31.840Z,2.47
2023-04-30T21:36:58.402Z,2.67
2023-04-30T21:39:24.918Z,2.50
2023-04-30T21:41:51.361Z,2.63
2023-04-30T21:44:18.153Z,2.53
2023-04-30T21:46:44.789Z,2.83
2023-04-30T21:49:12.655Z,2.72
2023-04-30T21:51:39.550Z,2.40
2023-04-30T21:54:06.141Z,2.45
2023-04-30T21:56:32.610Z,2.35
2023-04-30T21:58:59.040Z,2.45
2023-04-30T22:01:27.766Z,2.40
2023-04-30T22:03:57.161Z,2.40
2023-04-30T22:06:24.055Z,2.50
2023-04-30T22:08:50.688Z,2.50
2023-04-30T22:11:17.719Z,2.20
2023-04-30T22:13:44.299Z,2.95
2023-04-30T22:16:11.601Z,3.60
2023-04-30T22:18:38.219Z,2.88
2023-04-30T22:21:04.752Z,2.63
2023-04-30T22:23:31.456Z,2.45
2023-04-30T22:25:57.935Z,2.78
2023-04-30T22:28:24.468Z,2.63
2023-04-30T22:30:57.627Z,2.67
2023-04-30T22:33:24.878Z,2.80
2023-04-30T22:35:52.033Z,2.55
2023-04-30T22:38:18.614Z,2.60
2023-04-30T22:40:45.972Z,2.50
2023-04-30T22:43:12.609Z,2.47
2023-04-30T22:45:40.547Z,2.30
2023-04-30T22:48:08.118Z,2.65
2023-04-30T22:50:34.611Z,2.55
2023-04-30T22:53:01.406Z,2.63
2023-04-30T22:55:27.946Z,2.53
2023-04-30T22:57:54.404Z,2.28
2023-04-30T23:00:21.246Z,2.50
2023-04-30T23:02:47.990Z,2.30
2023-04-30T23:05:14.610Z,1.95
2023-04-30T23:07:41.193Z,2.28
2023-04-30T23:10:07.808Z,2.35
2023-04-30T23:12:35.649Z,2.67
2023-04-30T23:15:02.175Z,2.58
2023-04-30T23:17:28.912Z,2.42
2023-04-30T23:19:55.755Z,2.30
2023-04-30T23:22:22.809Z,1.80
2023-04-30T23:24:49.337Z,2.20
2023-04-30T23:27:16.377Z,2.15
2023-04-30T23:29:43.085Z,2.15
2023-04-30T23:32:09.772Z,2.50
2023-04-30T23:34:36.681Z,1.65
2023-04-30T23:37:03.220Z,2.03
2023-04-30T23:39:29.738Z,2.45
2023-04-30T23:41:56.711Z,2.13
2023-04-30T23:44:23.204Z,2.05
2023-04-30T23:46:51.083Z,2.03
2023-04-30T23:49:18.437Z,2.25
2023-04-30T23:51:45.820Z,2.03
2023-04-30T23:54:12.433Z,2.00
2023-04-30T23:56:38.910Z,2.00
2023-04-30T23:59:05.489Z,2.30
